To NAV CANADA Home Page Login to a new session Search on AWWS site Feedback and Comments Disclaimer Vers la page française équivalente Tips FAQ What's new on the site To the Forecasts and Observations / NOTAM section To "File a Flight Plan" website Publications and other links Update of the User's profile FIC Telephone Numbers My Weather Data Folder Route Weather Data Regional Weather Data Local Weather Data To the Forecasts and Observations / NOTAM section
Request Generated 08/28/2015 at 07:23:05 UTC . Weather information available at that time is displayed.

METAR/TAF

MONTREAL/PIERRE-ELLIOTT-TRUDEAU INTL/QC    

METAR CYUL 280700Z 27005KT 15SM SKC 15/12 A3011 RMK SLP197=
METAR CYUL 280600Z 28006KT 15SM SKC 15/11 A3011 RMK SLP197=
METAR CYUL 280500Z 28005KT 15SM FEW045 15/12 A3011 RMK SC1 SC TR
SLP195=

TAF CYUL 280538Z 2806/2906 28005KT P6SM FEW040
BECMG 2807/2809 24005KT
BECMG 2814/2816 24012KT
FM290200 23008KT P6SM SKC
RMK NXT FCST BY 280900Z=
Your time UTC time
Weather data provided by Environment Canada and NAV CANADA